createdAt,value
2022-10-11T00:00:00.404Z,99057.41
2022-10-11T00:02:31.294Z,99123.91
2022-10-11T00:05:04.567Z,99107.56
2022-10-11T00:07:35.473Z,99050.84
2022-10-11T00:10:07.350Z,99124.91
2022-10-11T00:12:40.337Z,99087.72
2022-10-11T00:15:14.889Z,99024.38
2022-10-11T00:17:46.573Z,99097.56
2022-10-11T00:20:17.942Z,99097.75
2022-10-11T00:22:50.258Z,99084.31
2022-10-11T00:25:21.591Z,99064.38
2022-10-11T00:27:54.206Z,99035.56
2022-10-11T00:30:24.983Z,99097.09
2022-10-11T00:32:55.917Z,99021.72
2022-10-11T00:35:26.940Z,99028.88
2022-10-11T00:38:00.412Z,99100.28
2022-10-11T00:40:34.335Z,99069.91
2022-10-11T00:43:18.287Z,99070.38
2022-10-11T00:46:05.849Z,99076.00
2022-10-11T00:48:43.158Z,99092.81
2022-10-11T00:51:21.749Z,99053.34
2022-10-11T00:53:54.882Z,99121.50
2022-10-11T00:56:29.521Z,99085.25
2022-10-11T00:59:05.846Z,99109.34
2022-10-11T01:01:36.955Z,99102.31
2022-10-11T01:04:08.796Z,99050.69
2022-10-11T01:06:39.828Z,99036.84
2022-10-11T01:09:11.830Z,99078.22
2022-10-11T01:11:45.706Z,99101.25
2022-10-11T01:14:40.601Z,99087.63
2022-10-11T01:17:23.032Z,99033.88
2022-10-11T01:20:31.764Z,99047.34
2022-10-11T01:23:28.073Z,99047.56
2022-10-11T01:26:31.926Z,99022.66
2022-10-11T01:29:15.378Z,99049.44
2022-10-11T01:31:54.380Z,99058.56
2022-10-11T01:34:34.136Z,99014.97
2022-10-11T01:37:08.711Z,99037.72
2022-10-11T01:39:44.258Z,99053.47
2022-10-11T01:42:17.424Z,99040.34
2022-10-11T01:44:51.970Z,99060.56
2022-10-11T01:47:25.915Z,99056.09
2022-10-11T01:50:00.871Z,99057.63
2022-10-11T01:52:34.934Z,98961.56
2022-10-11T01:55:20.206Z,99008.81
2022-10-11T01:58:08.210Z,99061.66
2022-10-11T02:00:52.278Z,99043.59
2022-10-11T02:03:37.538Z,98957.78
2022-10-11T02:06:14.385Z,98949.34
2022-10-11T02:08:51.345Z,98992.94
2022-10-11T02:11:25.801Z,99057.50
2022-10-11T02:14:04.193Z,98986.78
2022-10-11T02:16:39.866Z,98999.38
2022-10-11T02:19:15.259Z,99057.50
2022-10-11T02:21:50.310Z,98983.19
2022-10-11T02:24:25.562Z,99015.72
2022-10-11T02:26:58.594Z,98989.25
2022-10-11T02:29:34.176Z,99021.59
2022-10-11T02:32:05.118Z,98976.81
2022-10-11T02:34:41.076Z,99045.50
2022-10-11T02:37:19.388Z,99029.56
2022-10-11T02:39:56.331Z,99029.31
2022-10-11T02:42:33.776Z,98973.28
2022-10-11T02:45:09.432Z,98958.28
2022-10-11T02:47:41.017Z,98938.97
2022-10-11T02:50:14.673Z,98971.50
2022-10-11T02:52:45.626Z,98963.31
2022-10-11T02:55:16.546Z,98979.66
2022-10-11T02:57:47.843Z,98940.41
2022-10-11T03:00:19.460Z,98949.31
2022-10-11T03:02:50.441Z,98887.41
2022-10-11T03:05:23.225Z,98869.75
2022-10-11T03:07:54.126Z,98881.91
2022-10-11T03:10:25.082Z,98858.38
2022-10-11T03:12:56.107Z,98931.41
2022-10-11T03:15:27.345Z,98828.09
2022-10-11T03:17:58.625Z,98948.28
2022-10-11T03:20:31.430Z,98861.72
2022-10-11T03:23:02.496Z,98817.75
2022-10-11T03:25:33.343Z,98835.53
2022-10-11T03:28:04.268Z,98848.66
2022-10-11T03:30:35.455Z,98866.94
2022-10-11T03:33:07.329Z,98856.00
2022-10-11T03:35:39.920Z,98863.66
2022-10-11T03:38:12.975Z,98790.09
2022-10-11T03:40:44.605Z,98829.03
2022-10-11T03:43:17.053Z,98892.59
2022-10-11T03:45:48.006Z,98838.06
2022-10-11T03:48:18.841Z,98874.09
2022-10-11T03:50:51.931Z,98834.69
2022-10-11T03:53:22.828Z,98843.41
2022-10-11T03:55:56.528Z,98900.28
2022-10-11T03:58:27.546Z,98881.63
2022-10-11T04:00:58.388Z,98897.47
2022-10-11T04:03:30.449Z,98870.91
2022-10-11T04:06:03.389Z,98796.00
2022-10-11T04:08:34.667Z,98853.66
2022-10-11T04:11:05.549Z,98858.25
2022-10-11T04:13:36.373Z,98871.03
2022-10-11T04:16:08.075Z,98834.38
2022-10-11T04:18:39.240Z,98753.00
2022-10-11T04:21:11.752Z,98801.00
2022-10-11T04:23:44.417Z,98851.59
2022-10-11T04:26:15.266Z,98841.09
2022-10-11T04:28:46.281Z,98818.03
2022-10-11T04:31:17.249Z,98823.69
2022-10-11T04:33:48.064Z,98790.22
2022-10-11T04:36:20.802Z,98779.28
2022-10-11T04:38:57.153Z,98821.63
2022-10-11T04:41:27.949Z,98799.38
2022-10-11T04:43:58.741Z,98735.16
2022-10-11T04:46:29.506Z,98863.38
2022-10-11T04:49:00.429Z,98841.88
2022-10-11T04:51:34.573Z,98782.25
2022-10-11T04:54:08.417Z,98849.94
2022-10-11T04:56:39.365Z,98872.44
2022-10-11T04:59:10.223Z,98890.13
2022-10-11T05:01:41.729Z,98854.97
2022-10-11T05:04:12.753Z,98856.00
2022-10-11T05:06:45.378Z,98883.69
2022-10-11T05:09:21.176Z,98877.78
2022-10-11T05:11:54.826Z,98861.50
2022-10-11T05:14:25.665Z,98894.19
2022-10-11T05:16:57.485Z,98875.88
2022-10-11T05:19:28.306Z,98899.28
2022-10-11T05:22:02.690Z,98849.22
2022-10-11T05:24:35.589Z,98885.78
2022-10-11T05:27:06.315Z,98770.84
2022-10-11T05:29:37.070Z,98877.84
2022-10-11T05:32:08.158Z,98869.63
2022-10-11T05:34:38.856Z,98880.28
2022-10-11T05:37:11.387Z,98850.25
2022-10-11T05:39:42.241Z,98884.16
2022-10-11T05:42:13.204Z,98858.22
2022-10-11T05:44:43.985Z,98844.38
2022-10-11T05:47:14.824Z,98809.34
2022-10-11T05:49:45.578Z,98853.47
2022-10-11T05:52:21.394Z,98764.47
2022-10-11T05:54:52.409Z,98759.66
2022-10-11T05:57:23.210Z,98859.53
2022-10-11T05:59:54.039Z,98790.72
2022-10-11T06:02:25.019Z,98861.63
2022-10-11T06:04:58.298Z,98842.34
2022-10-11T06:07:31.082Z,98856.47
2022-10-11T06:10:08.097Z,98857.34
2022-10-11T06:12:39.750Z,98821.63
2022-10-11T06:15:11.929Z,98816.38
2022-10-11T06:17:48.761Z,98851.41
2022-10-11T06:20:19.959Z,98835.72
2022-10-11T06:22:52.644Z,98781.66
2022-10-11T06:25:23.614Z,98882.13
2022-10-11T06:27:54.590Z,98786.44
2022-10-11T06:30:25.557Z,98773.56
2022-10-11T06:32:59.037Z,98862.25
2022-10-11T06:35:32.175Z,98880.16
2022-10-11T06:38:04.887Z,98801.34
2022-10-11T06:40:36.788Z,98871.50
2022-10-11T06:43:08.197Z,98792.25
2022-10-11T06:45:40.840Z,98807.59
2022-10-11T06:48:12.085Z,98873.09
2022-10-11T06:50:59.185Z,98854.94
2022-10-11T06:53:34.016Z,98792.25
2022-10-11T06:56:09.400Z,98773.28
2022-10-11T06:58:43.101Z,98865.75
2022-10-11T07:01:19.850Z,98870.25
2022-10-11T07:03:51.423Z,98831.47
2022-10-11T07:06:23.966Z,98775.50
2022-10-11T07:08:57.743Z,98881.72
2022-10-11T07:11:30.912Z,98884.34
2022-10-11T07:14:03.189Z,98819.81
2022-10-11T07:16:34.255Z,98798.63
2022-10-11T07:19:09.631Z,98832.09
2022-10-11T07:21:44.171Z,98813.88
2022-10-11T07:24:17.080Z,98906.09
2022-10-11T07:26:48.719Z,98816.25
2022-10-11T07:29:20.016Z,98833.41
2022-10-11T07:31:53.725Z,98890.53
2022-10-11T07:34:25.032Z,98902.56
2022-10-11T07:36:59.892Z,98864.16
2022-10-11T07:39:33.669Z,98842.47
2022-10-11T07:42:04.688Z,98889.94
2022-10-11T07:44:36.294Z,98824.97
2022-10-11T07:47:11.042Z,98834.81
2022-10-11T07:49:45.220Z,98912.47
2022-10-11T07:52:16.214Z,98916.91
2022-10-11T07:54:52.088Z,98917.88
2022-10-11T07:57:23.870Z,98897.88
2022-10-11T07:59:54.943Z,98823.41
2022-10-11T08:02:26.144Z,98879.78
2022-10-11T08:04:57.351Z,98931.72
2022-10-11T08:07:29.544Z,98830.41
2022-10-11T08:10:02.326Z,98836.91
2022-10-11T08:12:34.359Z,98917.00
2022-10-11T08:15:05.794Z,98952.31
2022-10-11T08:17:36.645Z,98950.75
2022-10-11T08:20:09.100Z,98891.31
2022-10-11T08:22:40.561Z,98910.28
2022-10-11T08:28:08.878Z,98993.63
2022-10-11T08:30:55.113Z,98975.75
2022-10-11T08:33:26.999Z,99023.69
2022-10-11T08:36:53.907Z,99056.94
2022-10-11T08:39:25.008Z,98952.72
2022-10-11T08:42:04.085Z,99026.44
2022-10-11T08:45:10.433Z,99038.81
2022-10-11T08:47:39.485Z,99044.22
2022-10-11T09:22:30.339Z,99056.25
2022-10-11T09:25:14.532Z,99034.81
2022-10-11T09:28:08.531Z,98984.69
2022-10-11T09:30:44.200Z,99035.22
2022-10-11T09:33:20.878Z,99052.31
2022-10-11T09:35:54.314Z,99061.16
2022-10-11T09:38:42.826Z,99018.47
2022-10-11T09:41:22.208Z,99054.56
2022-10-11T09:43:55.997Z,98954.72
2022-10-11T09:46:33.949Z,98947.59
2022-10-11T09:49:09.731Z,98943.53
2022-10-11T09:54:51.675Z,98967.56
2022-10-11T09:57:31.182Z,98962.53
2022-10-11T10:00:23.449Z,98937.06
2022-10-11T10:02:55.912Z,99013.84
2022-10-11T10:05:41.081Z,99012.66
2022-10-11T10:08:38.404Z,99022.94
2022-10-11T10:11:54.176Z,98966.09
2022-10-11T10:14:56.881Z,98960.25
2022-10-11T10:17:55.602Z,99038.28
2022-10-11T10:20:48.076Z,99077.88
2022-10-11T10:23:46.063Z,99072.75
2022-10-11T10:26:42.430Z,99069.19
2022-10-11T10:30:11.898Z,99036.78
2022-10-11T10:37:32.511Z,99100.75
2022-10-11T10:41:00.290Z,99128.38
2022-10-11T10:43:37.893Z,99153.72
2022-10-11T10:46:42.160Z,99090.41
2022-10-11T10:53:30.134Z,99037.69
2022-10-11T10:56:39.730Z,99146.44
2022-10-11T10:59:42.471Z,99155.06
2022-10-11T11:02:49.981Z,99071.16
2022-10-11T11:05:30.014Z,99149.09
2022-10-11T11:08:14.180Z,99011.44
2022-10-11T11:10:52.652Z,99147.50
2022-10-11T11:13:36.795Z,99069.19
2022-10-11T11:16:22.985Z,99168.03
2022-10-11T11:19:01.475Z,99177.78
2022-10-11T11:21:44.278Z,99092.22
2022-10-11T11:24:26.523Z,99158.22
2022-10-11T11:27:06.543Z,99122.31
2022-10-11T11:29:55.221Z,99150.53
2022-10-11T11:32:39.505Z,99180.50
2022-10-11T11:35:17.412Z,99192.53
2022-10-11T11:37:55.544Z,99225.09
2022-10-11T11:40:36.466Z,99094.81
2022-10-11T11:43:11.412Z,99207.19
2022-10-11T11:45:50.416Z,99120.03
2022-10-11T11:48:25.768Z,99214.25
2022-10-11T11:51:03.955Z,99173.19
2022-10-11T11:53:51.941Z,99235.78
2022-10-11T11:56:30.747Z,99189.47
2022-10-11T11:59:20.517Z,99169.78
2022-10-11T12:01:58.819Z,99233.28
2022-10-11T12:04:44.798Z,99104.03
2022-10-11T12:07:19.259Z,99252.25
2022-10-11T12:09:58.710Z,99243.63
2022-10-11T12:12:38.894Z,99198.25
2022-10-11T12:15:24.657Z,99246.25
2022-10-11T12:18:42.616Z,99245.41
2022-10-11T12:21:57.934Z,99106.50
2022-10-11T12:25:27.164Z,99124.22
2022-10-11T12:32:35.480Z,99212.38
2022-10-11T12:35:53.458Z,99262.91
2022-10-11T12:38:44.079Z,99205.56
2022-10-11T12:42:24.910Z,99263.09
2022-10-11T12:50:18.061Z,99290.38
2022-10-11T12:54:24.937Z,99136.16
2022-10-11T12:57:55.099Z,99113.66
2022-10-11T13:01:14.977Z,99134.84
2022-10-11T13:04:00.686Z,99230.81
2022-10-11T13:06:46.719Z,99219.47
2022-10-11T13:09:32.315Z,99157.03
2022-10-11T13:12:16.491Z,99216.34
2022-10-11T13:15:22.351Z,99343.25
2022-10-11T13:18:02.357Z,99248.72
2022-10-11T13:20:50.969Z,99342.16
2022-10-11T13:24:22.204Z,99205.75
2022-10-11T13:26:40.547Z,99271.78
2022-10-11T13:29:20.150Z,99289.03
2022-10-11T13:31:52.420Z,99365.09
2022-10-11T13:34:29.550Z,99345.34
2022-10-11T13:37:06.252Z,99361.47
2022-10-11T13:39:40.297Z,99379.59
2022-10-11T13:42:23.619Z,99387.31
2022-10-11T13:44:55.526Z,99368.50
2022-10-11T13:47:33.853Z,99373.41
2022-10-11T13:50:23.634Z,99371.78
2022-10-11T13:53:00.968Z,99392.44
2022-10-11T13:55:35.285Z,99300.69
2022-10-11T13:58:18.576Z,99337.63
2022-10-11T14:01:02.357Z,99333.47
2022-10-11T14:03:42.465Z,99299.97
2022-10-11T14:06:13.884Z,99333.28
2022-10-11T14:08:50.720Z,99371.72
2022-10-11T14:11:37.276Z,99389.63
2022-10-11T14:14:43.539Z,99368.28
2022-10-11T14:17:22.494Z,99383.75
2022-10-11T14:20:16.897Z,99324.59
2022-10-11T14:22:52.883Z,99341.75
2022-10-11T14:25:25.642Z,99467.03
2022-10-11T14:28:01.901Z,99464.28
2022-10-11T14:30:34.615Z,99430.09
2022-10-11T14:33:08.397Z,99478.84
2022-10-11T14:35:44.233Z,99356.34
2022-10-11T14:38:18.193Z,99475.38
2022-10-11T14:40:56.274Z,99424.72
2022-10-11T14:43:27.324Z,99447.25
2022-10-11T14:45:58.341Z,99392.38
2022-10-11T14:48:50.702Z,99474.88
2022-10-11T14:51:25.345Z,99447.41
2022-10-11T14:53:59.172Z,99505.97
2022-10-11T14:56:32.140Z,99451.13
2022-10-11T14:59:03.721Z,99520.47
2022-10-11T15:01:44.549Z,99466.31
2022-10-11T15:04:19.133Z,99464.69
2022-10-11T15:06:54.772Z,99466.50
2022-10-11T15:09:26.916Z,99463.31
2022-10-11T15:12:03.919Z,99499.06
2022-10-11T15:14:37.855Z,99523.44
2022-10-11T15:17:09.886Z,99454.84
2022-10-11T15:19:41.836Z,99547.56
2022-10-11T15:22:15.407Z,99475.63
2022-10-11T15:24:53.241Z,99535.91
2022-10-11T15:27:29.917Z,99577.19
2022-10-11T15:30:01.376Z,99542.78
2022-10-11T15:32:32.355Z,99569.50
2022-10-11T15:35:03.340Z,99594.34
2022-10-11T15:37:44.420Z,99605.38
2022-10-11T15:40:20.917Z,99486.25
2022-10-11T15:42:54.093Z,99604.84
2022-10-11T15:45:29.421Z,99601.50
2022-10-11T15:48:03.028Z,99561.34
2022-10-11T15:50:42.469Z,99654.09
2022-10-11T15:53:15.692Z,99589.56
2022-10-11T15:55:48.065Z,99592.84
2022-10-11T15:58:27.125Z,99603.16
2022-10-11T16:00:59.858Z,99548.09
2022-10-11T16:03:32.941Z,99617.63
2022-10-11T16:06:05.696Z,99604.84
2022-10-11T16:08:37.188Z,99696.16
2022-10-11T16:11:09.502Z,99643.00
2022-10-11T16:13:42.072Z,99701.63
2022-10-11T16:16:20.068Z,99595.19
2022-10-11T16:18:53.012Z,99655.47
2022-10-11T16:21:24.923Z,99727.09
2022-10-11T16:23:57.782Z,99710.81
2022-10-11T16:26:28.666Z,99659.41
2022-10-11T16:29:01.333Z,99695.34
2022-10-11T16:31:32.151Z,99753.75
2022-10-11T16:34:02.996Z,99687.56
2022-10-11T16:36:41.392Z,99635.13
2022-10-11T16:39:15.349Z,99673.97
2022-10-11T16:41:46.859Z,99738.47
2022-10-11T16:44:20.952Z,99726.72
2022-10-11T16:46:52.537Z,99817.97
2022-10-11T16:49:26.913Z,99780.94
2022-10-11T16:51:59.886Z,99812.84
2022-10-11T16:54:31.269Z,99727.81
2022-10-11T16:57:02.946Z,99727.84
2022-10-11T16:59:35.522Z,99814.97
2022-10-11T17:02:07.200Z,99734.03
2022-10-11T17:04:38.308Z,99809.13
2022-10-11T17:07:13.157Z,99765.41
2022-10-11T17:09:44.625Z,99734.38
2022-10-11T17:12:17.019Z,99856.72
2022-10-11T17:14:49.626Z,99844.84
2022-10-11T17:17:23.407Z,99775.97
2022-10-11T17:19:54.331Z,99861.28
2022-10-11T17:22:25.321Z,99734.75
2022-10-11T17:24:56.308Z,99684.75
2022-10-11T17:27:27.172Z,99874.41
2022-10-11T17:29:59.795Z,99741.66
2022-10-11T17:32:30.713Z,99874.47
2022-10-11T17:35:03.352Z,99822.72
2022-10-11T17:37:34.251Z,99919.38
2022-10-11T17:40:05.289Z,99888.41
2022-10-11T17:42:36.242Z,99784.88
2022-10-11T17:45:09.557Z,99866.84
2022-10-11T17:47:40.739Z,99916.81
2022-10-11T17:50:11.855Z,99884.97
2022-10-11T17:52:42.669Z,99912.59
2022-10-11T17:55:13.702Z,99853.09
2022-10-11T17:57:44.612Z,99940.28
2022-10-11T18:00:18.701Z,99815.16
2022-10-11T18:02:51.451Z,99831.56
2022-10-11T18:05:22.465Z,99955.84
2022-10-11T18:07:59.866Z,99868.66
2022-10-11T18:10:30.731Z,99938.56
2022-10-11T18:13:06.212Z,99908.34
2022-10-11T18:15:39.338Z,99943.78
2022-10-11T18:18:12.585Z,99958.44
2022-10-11T18:20:48.817Z,99883.38
2022-10-11T18:23:21.389Z,100035.38
2022-10-11T18:25:52.441Z,99959.31
2022-10-11T18:28:35.470Z,100030.19
2022-10-11T18:31:13.291Z,99990.44
2022-10-11T18:33:46.864Z,99975.75
2022-10-11T18:36:19.860Z,99974.91
2022-10-11T18:38:51.795Z,100047.47
2022-10-11T18:41:23.942Z,99904.09
2022-10-11T18:43:56.133Z,100056.97
2022-10-11T18:46:29.450Z,100052.66
2022-10-11T18:49:02.824Z,100051.81
2022-10-11T18:51:35.337Z,99957.63
2022-10-11T18:54:07.713Z,100005.13
2022-10-11T18:56:39.802Z,100059.56
2022-10-11T18:59:11.122Z,100072.56
2022-10-11T19:01:45.306Z,99974.88
2022-10-11T19:04:18.312Z,100064.75
2022-10-11T19:06:50.935Z,100031.91
2022-10-11T19:09:25.672Z,99973.97
2022-10-11T19:12:00.658Z,100044.84
2022-10-11T19:14:32.876Z,100075.13
2022-10-11T19:17:07.640Z,100017.19
2022-10-11T19:19:38.774Z,100007.69
2022-10-11T19:22:09.575Z,100054.34
2022-10-11T19:24:40.337Z,100132.19
2022-10-11T19:27:11.104Z,100087.19
2022-10-11T19:29:41.855Z,100132.16
2022-10-11T19:32:14.293Z,100120.06
2022-10-11T19:34:45.084Z,100116.59
2022-10-11T19:37:16.918Z,100146.00
2022-10-11T19:39:47.654Z,100107.94
2022-10-11T19:42:18.619Z,100075.09
2022-10-11T19:44:49.362Z,100172.00
2022-10-11T19:47:21.704Z,100123.53
2022-10-11T19:49:52.689Z,100223.91
2022-10-11T19:52:23.596Z,100191.03
2022-10-11T19:54:54.450Z,100210.06
2022-10-11T19:57:25.188Z,100204.88
2022-10-11T19:59:56.087Z,100178.84
2022-10-11T20:02:28.564Z,100219.53
2022-10-11T20:04:59.404Z,100243.81
2022-10-11T20:07:33.789Z,100199.63
2022-10-11T20:13:35.147Z,100163.28
2022-10-11T20:16:41.332Z,100216.94
2022-10-11T20:19:16.055Z,100279.28
2022-10-11T20:21:46.876Z,100281.00
2022-10-11T20:24:25.553Z,100248.09
2022-10-11T20:30:45.821Z,100160.66
2022-10-11T20:33:22.652Z,100269.75
2022-10-11T20:36:05.828Z,100306.97
2022-10-11T20:38:45.510Z,100171.09
2022-10-11T20:41:18.967Z,100326.00
2022-10-11T20:43:50.687Z,100235.13
2022-10-11T20:46:23.291Z,100277.53
2022-10-11T20:49:01.137Z,100345.06
2022-10-11T20:51:34.815Z,100319.09
2022-10-11T20:54:06.333Z,100309.53
2022-10-11T20:56:37.876Z,100238.59
2022-10-11T20:59:09.182Z,100352.84
2022-10-11T21:01:41.515Z,100339.88
2022-10-11T21:04:20.172Z,100379.69
2022-10-11T21:06:52.587Z,100384.84
2022-10-11T21:09:23.257Z,100237.75
2022-10-11T21:11:53.971Z,100384.88
2022-10-11T21:14:24.676Z,100294.84
2022-10-11T21:16:55.299Z,100391.81
2022-10-11T21:19:26.067Z,100297.47
2022-10-11T21:21:58.289Z,100393.56
2022-10-11T21:24:29.006Z,100374.47
2022-10-11T21:27:00.791Z,100410.84
2022-10-11T21:29:32.124Z,100331.19
2022-10-11T21:32:02.759Z,100317.34
2022-10-11T21:34:33.511Z,100308.69
2022-10-11T21:37:05.951Z,100414.31
2022-10-11T21:39:36.915Z,100410.88
2022-10-11T21:42:07.925Z,100416.94
2022-10-11T21:44:42.000Z,100383.16
2022-10-11T21:47:13.483Z,100410.91
2022-10-11T21:49:44.444Z,100462.00
2022-10-11T21:52:17.036Z,100469.78
2022-10-11T21:54:48.260Z,100448.97
2022-10-11T21:57:19.253Z,100461.13
2022-10-11T21:59:51.082Z,100422.13
2022-10-11T22:02:22.533Z,100423.88
2022-10-11T22:04:54.111Z,100462.81
2022-10-11T22:07:26.665Z,100443.72
2022-10-11T22:09:57.636Z,100474.91
2022-10-11T22:12:28.536Z,100481.00
2022-10-11T22:14:59.716Z,100494.88
2022-10-11T22:17:30.809Z,100509.59
2022-10-11T22:20:01.845Z,100515.66
2022-10-11T22:22:34.952Z,100520.81
2022-10-11T22:25:06.256Z,100436.63
2022-10-11T22:27:40.267Z,100422.72
2022-10-11T22:30:12.373Z,100482.56
2022-10-11T22:32:43.237Z,100521.66
2022-10-11T22:35:14.076Z,100552.03
2022-10-11T22:37:46.667Z,100515.59
2022-10-11T22:40:17.582Z,100528.56
2022-10-11T22:42:48.883Z,100543.38
2022-10-11T22:45:20.052Z,100573.75
2022-10-11T22:47:50.950Z,100544.28
2022-10-11T22:50:21.788Z,100522.56
2022-10-11T22:52:54.309Z,100583.34
2022-10-11T22:55:29.174Z,100526.94
2022-10-11T22:58:00.367Z,100604.16
2022-10-11T23:00:32.518Z,100538.25
2022-10-11T23:03:04.182Z,100613.69
2022-10-11T23:05:35.106Z,100526.97
2022-10-11T23:08:10.476Z,100563.41
2022-10-11T23:10:42.607Z,100533.94
2022-10-11T23:13:14.690Z,100563.38
2022-10-11T23:15:46.678Z,100566.84
2022-10-11T23:18:19.533Z,100660.53
2022-10-11T23:20:50.722Z,100641.47
2022-10-11T23:23:23.623Z,100670.97
2022-10-11T23:26:04.596Z,100568.59
2022-10-11T23:28:35.683Z,100564.28
2022-10-11T23:31:11.149Z,100686.59
2022-10-11T23:33:42.447Z,100585.97
2022-10-11T23:36:18.156Z,100670.97
2022-10-11T23:38:54.219Z,100664.03
2022-10-11T23:41:25.729Z,100648.41
2022-10-11T23:43:56.963Z,100633.66
2022-10-11T23:46:28.262Z,100625.84
2022-10-11T23:48:59.835Z,100687.44
2022-10-11T23:51:30.709Z,100594.59
2022-10-11T23:54:03.352Z,100638.88
2022-10-11T23:56:34.323Z,100653.59
2022-10-11T23:59:05.660Z,100672.66
